Time;durP1;ratioP1;P1;durP2;ratioP2;P2;SDS_P1;SDS_P2;PMS_P1;PMS_P2;Temp;Humidity;BMP_temperature;BMP_pressure;BME280_temperature;BME280_humidity;BME280_pressure;Samples;Min_cycle;Max_cycle;Signal;HPM_P1;HPM_P2
2021/01/06 00:00:30;;;;;;;5.53;3.23;;;3.70;99.90;;;;;;5093869;28;20223;-69
2021/01/06 00:02:55;;;;;;;4.20;3.07;;;3.70;99.90;;;;;;5091453;28;20460;-68
2021/01/06 00:05:24;;;;;;;5.27;3.47;;;3.70;99.90;;;;;;5074276;28;20249;-68
2021/01/06 00:07:50;;;;;;;4.00;2.90;;;3.70;99.90;;;;;;5076512;28;20267;-70
2021/01/06 00:10:23;;;;;;;3.23;2.93;;;3.70;99.90;;;;;;5076004;28;20452;-70
2021/01/06 00:12:49;;;;;;;3.30;2.60;;;3.70;99.90;;;;;;5077134;27;20229;-69
2021/01/06 00:15:16;;;;;;;3.23;2.70;;;3.70;99.90;;;;;;5069876;28;20445;-70
2021/01/06 00:17:42;;;;;;;5.70;3.40;;;3.70;99.90;;;;;;5069408;28;20251;-69
2021/01/06 00:20:10;;;;;;;5.53;3.07;;;3.80;99.90;;;;;;5089251;28;20524;-69
2021/01/06 00:22:35;;;;;;;3.23;2.50;;;3.80;99.90;;;;;;5049387;28;20222;-69
2021/01/06 00:25:01;;;;;;;4.20;3.00;;;3.70;99.90;;;;;;5106477;28;20452;-70
2021/01/06 00:27:27;;;;;;;3.50;2.80;;;3.80;99.90;;;;;;5088224;28;20221;-69
2021/01/06 00:29:52;;;;;;;3.20;2.23;;;3.70;99.90;;;;;;5089111;28;20230;-69
2021/01/06 00:32:19;;;;;;;4.13;2.93;;;3.70;99.90;;;;;;5090816;28;20214;-71
2021/01/06 00:34:46;;;;;;;5.07;2.70;;;3.70;99.90;;;;;;5083894;28;20211;-70
2021/01/06 00:37:15;;;;;;;4.90;2.93;;;3.80;99.90;;;;;;5067404;28;20454;-70
2021/01/06 00:39:41;;;;;;;6.40;3.90;;;3.80;99.90;;;;;;5083789;28;20453;-71
2021/01/06 00:42:07;;;;;;;3.27;3.00;;;3.80;99.90;;;;;;5090423;28;20511;-69
2021/01/06 00:44:33;;;;;;;4.50;2.70;;;3.80;99.90;;;;;;5078530;27;20742;-69
2021/01/06 00:46:58;;;;;;;4.60;3.00;;;3.80;99.90;;;;;;5071511;27;20958;-69
2021/01/06 00:49:24;;;;;;;3.80;2.70;;;3.80;99.90;;;;;;5071278;28;20224;-69
2021/01/06 00:51:50;;;;;;;3.87;2.80;;;3.80;99.90;;;;;;5065811;28;20231;-69
2021/01/06 00:54:17;;;;;;;6.27;3.30;;;3.80;99.90;;;;;;5089913;28;20483;-70
2021/01/06 00:56:43;;;;;;;4.83;2.83;;;3.80;99.90;;;;;;5078262;28;20471;-69
2021/01/06 00:59:13;;;;;;;2.93;2.57;;;3.80;99.90;;;;;;5075983;28;20452;-69
2021/01/06 01:01:39;;;;;;;4.03;3.57;;;3.80;99.90;;;;;;5055534;28;20444;-69
2021/01/06 01:04:06;;;;;;;7.53;3.60;;;3.80;99.90;;;;;;5054041;28;20214;-69
2021/01/06 01:06:32;;;;;;;3.50;2.40;;;3.80;99.90;;;;;;5090081;28;20521;-69
2021/01/06 01:08:58;;;;;;;3.17;2.27;;;3.70;99.90;;;;;;5057129;27;20572;-69
2021/01/06 01:11:26;;;;;;;2.83;2.53;;;3.70;99.90;;;;;;5096237;27;20995;-69
2021/01/06 01:13:53;;;;;;;5.50;3.10;;;3.70;99.90;;;;;;5096000;27;20467;-69
2021/01/06 01:16:20;;;;;;;5.43;2.80;;;3.70;99.90;;;;;;5131832;27;21040;-70
2021/01/06 01:18:46;;;;;;;3.63;2.60;;;3.80;99.90;;;;;;5118876;27;20605;-69
2021/01/06 01:21:12;;;;;;;3.17;2.83;;;3.80;99.90;;;;;;5092509;28;20543;-69
2021/01/06 01:23:37;;;;;;;4.07;2.77;;;3.80;99.90;;;;;;5075195;28;20538;-69
2021/01/06 01:26:03;;;;;;;2.80;2.47;;;3.80;99.90;;;;;;5075501;28;20230;-69
2021/01/06 01:28:29;;;;;;;4.43;2.53;;;3.80;99.90;;;;;;5075869;28;20219;-70
2021/01/06 01:30:56;;;;;;;4.43;3.00;;;3.80;99.90;;;;;;5076085;28;20440;-71
2021/01/06 01:33:25;;;;;;;5.20;2.93;;;3.80;99.90;;;;;;5074506;28;20245;-71
2021/01/06 01:35:51;;;;;;;2.17;1.97;;;3.80;99.90;;;;;;5073649;28;20456;-72
2021/01/06 01:38:24;;;;;;;4.03;3.10;;;3.80;99.90;;;;;;5077436;28;20464;-71
2021/01/06 01:40:59;;;;;;;3.80;3.40;;;3.80;99.90;;;;;;5077179;28;21008;-72
2021/01/06 01:43:26;;;;;;;4.30;2.47;;;3.80;99.90;;;;;;5105081;27;20453;-71
2021/01/06 01:45:51;;;;;;;4.87;2.97;;;3.80;99.90;;;;;;5103842;27;20480;-71
2021/01/06 01:48:26;;;;;;;4.03;3.40;;;3.80;99.90;;;;;;5085454;28;20494;-68
2021/01/06 01:50:56;;;;;;;3.00;2.13;;;3.80;99.90;;;;;;5113534;27;20430;-70
2021/01/06 01:53:30;;;;;;;5.10;3.23;;;3.80;99.90;;;;;;5082258;28;20468;-72
2021/01/06 01:55:57;;;;;;;3.87;2.83;;;3.80;99.90;;;;;;5077324;28;21505;-71
2021/01/06 01:58:25;;;;;;;3.90;2.70;;;3.80;99.90;;;;;;5076893;28;20474;-70
2021/01/06 02:00:55;;;;;;;2.60;2.30;;;3.80;99.90;;;;;;5087530;28;20459;-71
2021/01/06 02:03:53;;;;;;;6.43;3.00;;;3.80;99.90;;;;;;5094645;28;21053;-70
2021/01/06 02:07:00;;;;;;;1.73;1.63;;;3.80;99.90;;;;;;5090217;28;20456;-70
2021/01/06 02:10:09;;;;;;;4.40;2.13;;;3.70;99.90;;;;;;5053622;28;20500;-72
2021/01/06 02:12:42;;;;;;;2.23;1.80;;;3.60;99.90;;;;;;5050414;28;20569;-72
2021/01/06 02:15:21;;;;;;;4.43;3.20;;;3.60;99.90;;;;;;5080228;28;20505;-71
2021/01/06 02:17:47;;;;;;;2.40;2.23;;;3.60;99.90;;;;;;5077203;28;20454;-72
2021/01/06 02:20:18;;;;;;;3.30;2.70;;;3.60;99.90;;;;;;5041524;28;20453;-71
2021/01/06 02:22:45;;;;;;;2.70;2.50;;;3.60;99.90;;;;;;5085521;28;20221;-72
2021/01/06 02:25:11;;;;;;;3.97;2.30;;;3.60;99.90;;;;;;5056649;28;20453;-71
2021/01/06 02:27:37;;;;;;;2.80;1.90;;;3.60;99.90;;;;;;5113943;28;20484;-71
2021/01/06 02:30:05;;;;;;;4.30;2.80;;;3.60;99.90;;;;;;5097412;28;20448;-72
2021/01/06 02:32:30;;;;;;;4.00;2.50;;;3.60;99.90;;;;;;5097157;28;20507;-71
2021/01/06 02:34:56;;;;;;;3.83;2.73;;;3.60;99.90;;;;;;5106692;28;20485;-71
2021/01/06 02:37:22;;;;;;;3.30;2.50;;;3.60;99.90;;;;;;5058608;28;20226;-72
2021/01/06 02:39:50;;;;;;;3.67;2.30;;;3.60;99.90;;;;;;5058158;28;20701;-71
2021/01/06 02:42:16;;;;;;;2.10;1.90;;;3.60;99.90;;;;;;5077250;28;20229;-70
2021/01/06 02:44:44;;;;;;;3.00;2.47;;;3.70;99.90;;;;;;5056943;28;20449;-72
2021/01/06 02:47:10;;;;;;;3.57;2.20;;;3.70;99.90;;;;;;5087929;28;20219;-68
2021/01/06 02:49:36;;;;;;;4.40;2.70;;;3.70;99.90;;;;;;5102959;28;20458;-72
2021/01/06 02:52:13;;;;;;;3.33;2.43;;;3.60;99.90;;;;;;5092175;28;20219;-70
2021/01/06 02:54:43;;;;;;;5.73;2.10;;;3.60;99.90;;;;;;5081888;28;20264;-71
2021/01/06 02:57:10;;;;;;;2.53;1.93;;;3.70;99.90;;;;;;5076063;28;20447;-70
2021/01/06 02:59:45;;;;;;;4.70;2.43;;;3.60;99.90;;;;;;5094733;28;20459;-72
2021/01/06 03:02:17;;;;;;;2.00;1.57;;;3.70;99.90;;;;;;5093588;28;20436;-71
2021/01/06 03:04:48;;;;;;;2.83;2.47;;;3.70;99.90;;;;;;5094322;28;20452;-70
2021/01/06 03:07:16;;;;;;;4.23;2.17;;;3.70;99.90;;;;;;5111640;28;20441;-71
2021/01/06 03:09:43;;;;;;;3.60;2.60;;;3.70;99.90;;;;;;5080081;27;20444;-71
2021/01/06 03:12:17;;;;;;;2.03;1.73;;;3.70;99.90;;;;;;5100729;28;20456;-71
2021/01/06 03:14:43;;;;;;;3.57;2.00;;;3.70;99.90;;;;;;5080421;28;20535;-71
2021/01/06 03:17:10;;;;;;;2.17;2.00;;;3.70;99.90;;;;;;5063733;28;20452;-72
2021/01/06 03:19:41;;;;;;;3.57;2.23;;;3.70;99.90;;;;;;5097014;28;20507;-72
2021/01/06 03:22:09;;;;;;;2.27;2.07;;;3.70;99.90;;;;;;5105440;27;20515;-71
2021/01/06 03:24:42;;;;;;;2.63;2.10;;;3.70;99.90;;;;;;5101322;27;20455;-72
2021/01/06 03:27:08;;;;;;;2.10;2.00;;;3.70;99.90;;;;;;5109482;28;20511;-70
2021/01/06 03:29:36;;;;;;;2.90;2.40;;;3.70;99.90;;;;;;5080169;28;20467;-72
2021/01/06 03:32:09;;;;;;;2.87;2.00;;;3.70;99.90;;;;;;5063278;28;20455;-72
2021/01/06 03:34:48;;;;;;;3.37;2.17;;;3.70;99.90;;;;;;5097621;28;20455;-72
2021/01/06 03:37:25;;;;;;;4.27;2.40;;;3.70;99.90;;;;;;5097118;28;20538;-70
2021/01/06 03:40:00;;;;;;;3.00;2.10;;;3.70;99.90;;;;;;5113578;28;20444;-71
2021/01/06 03:42:28;;;;;;;2.67;2.13;;;3.70;99.90;;;;;;5073922;28;20467;-72
2021/01/06 03:44:54;;;;;;;2.93;2.40;;;3.60;99.90;;;;;;5094715;27;20975;-72
2021/01/06 03:47:24;;;;;;;3.97;2.33;;;3.60;99.90;;;;;;5081665;28;20452;-72
2021/01/06 03:49:58;;;;;;;4.67;2.43;;;3.60;99.90;;;;;;5108097;27;20462;-70
2021/01/06 03:52:53;;;;;;;3.23;2.40;;;3.60;99.90;;;;;;5080576;27;20964;-70
2021/01/06 03:55:19;;;;;;;2.37;1.50;;;3.60;99.90;;;;;;5022862;28;20460;-71
2021/01/06 03:57:45;;;;;;;3.40;2.00;;;3.60;99.90;;;;;;5096061;28;20456;-71
2021/01/06 04:00:31;;;;;;;3.43;1.93;;;3.60;99.90;;;;;;5079676;28;20301;-71
2021/01/06 04:02:59;;;;;;;1.90;1.60;;;3.60;99.90;;;;;;5112890;28;20806;-71
2021/01/06 04:05:27;;;;;;;4.97;2.03;;;3.60;99.90;;;;;;5096676;28;20459;-72
2021/01/06 04:07:55;;;;;;;2.63;2.03;;;3.70;99.90;;;;;;5079345;28;20475;-72
2021/01/06 04:10:31;;;;;;;3.07;1.87;;;3.60;99.90;;;;;;5096063;28;20968;-72
2021/01/06 04:12:57;;;;;;;3.33;2.00;;;3.60;99.90;;;;;;5078440;28;20538;-71
2021/01/06 04:15:23;;;;;;;3.93;2.40;;;3.70;99.90;;;;;;5079280;28;20482;-72
2021/01/06 04:17:51;;;;;;;2.80;1.90;;;3.60;99.90;;;;;;5081022;28;20965;-69
2021/01/06 04:20:36;;;;;;;2.37;1.97;;;3.60;99.90;;;;;;5093206;28;20221;-70
2021/01/06 04:23:14;;;;;;;1.80;1.70;;;3.60;99.90;;;;;;5066996;28;20835;-71
2021/01/06 04:25:43;;;;;;;2.40;1.50;;;3.60;99.90;;;;;;5077984;28;20470;-72
2021/01/06 04:28:25;;;;;;;4.00;2.37;;;3.60;99.90;;;;;;5087825;28;20449;-72
2021/01/06 04:31:01;;;;;;;2.63;1.73;;;3.60;99.90;;;;;;5095900;28;20456;-72
2021/01/06 04:33:41;;;;;;;1.77;1.67;;;3.50;99.90;;;;;;5079712;28;20506;-72
2021/01/06 04:36:14;;;;;;;1.23;1.13;;;3.50;99.90;;;;;;5072552;28;20485;-72
2021/01/06 04:38:46;;;;;;;2.80;1.63;;;3.40;99.90;;;;;;5078286;28;20908;-72
2021/01/06 04:41:37;;;;;;;3.17;1.70;;;3.40;99.90;;;;;;5097989;27;20526;-70
2021/01/06 04:44:08;;;;;;;2.97;2.37;;;3.40;99.90;;;;;;5092453;27;20456;-71
2021/01/06 04:47:05;;;;;;;3.67;1.87;;;3.40;99.90;;;;;;5095986;28;20501;-71
2021/01/06 04:50:00;;;;;;;2.20;1.03;;;3.40;99.90;;;;;;5103043;27;20461;-71
2021/01/06 04:52:43;;;;;;;1.20;1.03;;;3.40;99.90;;;;;;5059052;28;20473;-72
2021/01/06 04:55:46;;;;;;;1.70;1.60;;;3.40;99.90;;;;;;5094500;28;20462;-70
2021/01/06 04:58:21;;;;;;;2.30;2.10;;;3.40;99.90;;;;;;5038965;27;20721;-71
2021/01/06 05:01:14;;;;;;;2.07;1.40;;;3.40;99.90;;;;;;5073617;28;20456;-72
2021/01/06 05:04:10;;;;;;;1.50;1.40;;;3.40;99.90;;;;;;5078658;28;20449;-72
2021/01/06 05:06:41;;;;;;;1.90;1.57;;;3.40;99.90;;;;;;5079367;28;20464;-72
2021/01/06 05:09:19;;;;;;;2.67;2.23;;;3.40;99.90;;;;;;5128661;27;20960;-69
2021/01/06 05:11:57;;;;;;;1.70;1.60;;;3.40;99.90;;;;;;5107036;27;20450;-70
2021/01/06 05:14:33;;;;;;;2.40;2.00;;;3.30;99.90;;;;;;5075320;28;20464;-71
2021/01/06 05:17:00;;;;;;;2.77;1.60;;;3.30;99.90;;;;;;5093484;28;20463;-70
2021/01/06 05:19:31;;;;;;;1.73;1.60;;;3.30;99.90;;;;;;5075457;28;20536;-70
2021/01/06 05:21:59;;;;;;;2.63;1.93;;;3.30;99.90;;;;;;5101404;28;20440;-71
2021/01/06 05:24:33;;;;;;;3.97;2.60;;;3.30;99.90;;;;;;5095480;28;20440;-72
2021/01/06 05:27:24;;;;;;;4.17;2.83;;;3.40;99.90;;;;;;5099594;28;20435;-72
2021/01/06 05:29:53;;;;;;;1.90;1.30;;;3.40;99.90;;;;;;5082242;27;20454;-71
2021/01/06 05:32:27;;;;;;;2.70;2.00;;;3.40;99.90;;;;;;5132881;27;20974;-72
2021/01/06 05:35:08;;;;;;;2.00;1.70;;;3.50;99.90;;;;;;5097796;27;20457;-71
2021/01/06 05:37:34;;;;;;;2.77;1.77;;;3.40;99.90;;;;;;5098966;27;20454;-70
2021/01/06 05:40:04;;;;;;;5.00;2.77;;;3.40;99.90;;;;;;5079708;28;20447;-72
2021/01/06 05:42:39;;;;;;;2.27;1.57;;;3.40;99.90;;;;;;5097802;28;20535;-71
2021/01/06 05:45:07;;;;;;;3.10;1.97;;;3.40;99.90;;;;;;5095334;27;20493;-71
2021/01/06 05:47:49;;;;;;;1.60;1.50;;;3.40;99.90;;;;;;5082053;27;20463;-70
2021/01/06 05:50:20;;;;;;;2.83;2.00;;;3.40;99.90;;;;;;5103932;27;20459;-71
2021/01/06 05:52:56;;;;;;;2.93;1.77;;;3.40;99.90;;;;;;5115195;27;20475;-72
2021/01/06 05:55:43;;;;;;;1.67;1.57;;;3.50;99.90;;;;;;5073843;28;20467;-72
2021/01/06 05:58:31;;;;;;;2.30;1.47;;;3.50;99.90;;;;;;5077259;28;20452;-72
2021/01/06 06:01:02;;;;;;;2.60;1.63;;;3.50;99.90;;;;;;5076763;28;20460;-71
2021/01/06 06:03:55;;;;;;;1.87;1.77;;;3.50;99.90;;;;;;5118295;28;20519;-70
2021/01/06 06:06:52;;;;;;;1.80;1.50;;;3.50;99.90;;;;;;5094105;28;20458;-71
2021/01/06 06:09:30;;;;;;;2.80;1.70;;;3.50;99.90;;;;;;5087649;28;20441;-71
2021/01/06 06:12:15;;;;;;;1.83;1.57;;;3.50;99.90;;;;;;5091315;28;20540;-71
2021/01/06 06:15:18;;;;;;;5.20;1.63;;;3.60;99.90;;;;;;5086756;28;20509;-71
2021/01/06 06:18:10;;;;;;;3.17;2.10;;;3.60;99.90;;;;;;5077355;28;20444;-71
2021/01/06 06:21:01;;;;;;;1.50;1.40;;;3.60;99.90;;;;;;5078178;28;20438;-72
2021/01/06 06:23:39;;;;;;;1.67;1.40;;;3.60;99.90;;;;;;5094510;28;20504;-71
2021/01/06 06:26:18;;;;;;;1.90;1.70;;;3.60;99.90;;;;;;5111697;28;20473;-71
2021/01/06 06:28:54;;;;;;;2.33;1.80;;;3.60;99.90;;;;;;5077434;28;20517;-72
2021/01/06 06:31:30;;;;;;;3.53;2.30;;;3.60;99.90;;;;;;5093880;28;21002;-71
2021/01/06 06:34:07;;;;;;;2.40;1.97;;;3.60;99.90;;;;;;5092951;28;20463;-70
2021/01/06 06:36:37;;;;;;;3.37;2.00;;;3.70;99.90;;;;;;5080909;28;20847;-71
2021/01/06 06:39:27;;;;;;;3.57;1.87;;;3.70;99.90;;;;;;5076526;28;20499;-72
2021/01/06 06:41:56;;;;;;;3.27;2.10;;;3.70;99.90;;;;;;5082470;28;20526;-71
2021/01/06 06:44:28;;;;;;;5.43;3.37;;;3.70;99.90;;;;;;5079297;28;20483;-71
2021/01/06 06:47:11;;;;;;;5.63;2.23;;;3.70;99.90;;;;;;5077970;28;20464;-72
2021/01/06 06:50:02;;;;;;;3.37;2.37;;;3.70;99.90;;;;;;5107408;28;20459;-71
2021/01/06 06:52:47;;;;;;;2.27;1.90;;;3.70;99.90;;;;;;5108785;27;20479;-70
2021/01/06 06:55:34;;;;;;;3.50;2.20;;;3.70;99.90;;;;;;5080845;28;20821;-70
2021/01/06 06:58:22;;;;;;;3.50;2.87;;;3.70;99.90;;;;;;5064058;28;20442;-71
2021/01/06 07:00:49;;;;;;;2.20;1.90;;;3.70;99.90;;;;;;5060832;28;20453;-71
2021/01/06 07:03:21;;;;;;;2.73;2.50;;;3.70;99.90;;;;;;5061095;28;20449;-71
2021/01/06 07:05:50;;;;;;;3.90;2.20;;;3.70;99.90;;;;;;5092002;28;20533;-70
2021/01/06 07:08:22;;;;;;;4.67;2.70;;;3.70;99.90;;;;;;5085968;27;20439;-72
2021/01/06 07:10:58;;;;;;;3.67;2.37;;;3.70;99.90;;;;;;5084772;28;20455;-71
2021/01/06 07:13:26;;;;;;;4.77;2.50;;;3.80;99.90;;;;;;5098072;28;20478;-72
2021/01/06 07:15:58;;;;;;;4.60;3.17;;;3.70;99.90;;;;;;5097501;28;20463;-70
2021/01/06 07:18:27;;;;;;;7.83;3.33;;;3.70;99.90;;;;;;5098204;28;20964;-72
2021/01/06 07:21:09;;;;;;;6.83;4.00;;;3.70;99.90;;;;;;5097310;28;20456;-71
2021/01/06 07:23:37;;;;;;;4.00;3.53;;;3.70;99.90;;;;;;5094032;28;20502;-70
2021/01/06 07:26:14;;;;;;;5.53;3.00;;;3.70;99.90;;;;;;5096795;28;20505;-73
2021/01/06 07:28:41;;;;;;;7.97;3.63;;;3.80;99.90;;;;;;5079587;28;20464;-71
2021/01/06 07:31:24;;;;;;;5.37;3.27;;;3.80;99.90;;;;;;5080479;28;20448;-72
2021/01/06 07:34:04;;;;;;;2.60;2.40;;;3.80;99.90;;;;;;5096633;28;20468;-69
2021/01/06 07:36:51;;;;;;;5.00;2.73;;;3.80;99.90;;;;;;5081700;28;20475;-72
2021/01/06 07:39:31;;;;;;;3.70;2.50;;;3.80;99.90;;;;;;5116713;27;20462;-72
2021/01/06 07:42:04;;;;;;;4.80;2.70;;;3.80;99.90;;;;;;5095662;27;20561;-72
2021/01/06 07:44:35;;;;;;;5.47;3.23;;;3.70;99.90;;;;;;5100375;27;20905;-71
2021/01/06 07:47:01;;;;;;;4.40;3.20;;;3.70;99.90;;;;;;5117687;27;20478;-72
2021/01/06 07:49:32;;;;;;;4.40;2.93;;;3.80;99.90;;;;;;5080893;28;20480;-70
2021/01/06 07:52:01;;;;;;;4.17;2.50;;;3.70;99.90;;;;;;5096898;28;20218;-71
2021/01/06 07:54:41;;;;;;;4.50;2.87;;;3.80;99.90;;;;;;5076210;28;20863;-71
2021/01/06 07:57:25;;;;;;;7.67;3.17;;;3.70;99.90;;;;;;5075967;28;20457;-69
2021/01/06 07:59:57;;;;;;;5.27;2.90;;;3.70;99.90;;;;;;5097009;28;20456;-70
2021/01/06 08:02:32;;;;;;;4.40;2.60;;;3.70;99.90;;;;;;5096987;28;20459;-71
2021/01/06 08:05:21;;;;;;;5.07;3.10;;;3.70;99.90;;;;;;5096498;28;20526;-71
2021/01/06 08:07:47;;;;;;;5.50;3.20;;;3.70;99.90;;;;;;5096137;28;20452;-71
2021/01/06 08:10:35;;;;;;;6.80;3.70;;;3.70;99.90;;;;;;5077296;28;20448;-71
2021/01/06 08:13:22;;;;;;;8.63;4.27;;;3.70;99.90;;;;;;5075959;28;20449;-71
2021/01/06 08:16:14;;;;;;;4.57;2.90;;;3.70;99.90;;;;;;5055079;28;20475;-71
2021/01/06 08:18:48;;;;;;;6.97;4.37;;;3.60;99.90;;;;;;5089919;28;20471;-71
2021/01/06 08:21:30;;;;;;;5.13;3.27;;;3.60;99.90;;;;;;5104399;28;20463;-71
2021/01/06 08:24:11;;;;;;;5.73;3.23;;;3.60;99.90;;;;;;5076096;28;20453;-70
2021/01/06 08:26:49;;;;;;;5.90;3.80;;;3.60;99.90;;;;;;5079656;27;20456;-72
2021/01/06 08:29:22;;;;;;;7.03;4.03;;;3.60;99.90;;;;;;5079030;28;20488;-71
2021/01/06 08:31:59;;;;;;;5.27;3.03;;;3.60;99.90;;;;;;5095036;28;20449;-71
2021/01/06 08:34:29;;;;;;;4.10;3.20;;;3.60;99.90;;;;;;5078684;28;20856;-71
2021/01/06 08:37:06;;;;;;;5.57;3.77;;;3.60;99.90;;;;;;5075240;28;20472;-71
2021/01/06 08:39:35;;;;;;;6.67;3.33;;;3.60;99.90;;;;;;5086891;27;20472;-71
2021/01/06 08:42:10;;;;;;;5.90;2.90;;;3.60;99.90;;;;;;5063195;28;20502;-72
2021/01/06 08:44:41;;;;;;;6.20;3.20;;;3.60;99.90;;;;;;5061126;28;20471;-69
2021/01/06 08:47:10;;;;;;;5.60;3.80;;;3.60;99.90;;;;;;5041815;28;20532;-71
2021/01/06 08:49:44;;;;;;;4.13;2.53;;;3.60;99.90;;;;;;5093972;27;20463;-72
2021/01/06 08:52:21;;;;;;;10.30;3.33;;;3.60;99.90;;;;;;5110202;28;20449;-72
2021/01/06 08:55:17;;;;;;;6.37;2.97;;;3.60;99.90;;;;;;5092127;27;20458;-72
2021/01/06 08:57:42;;;;;;;3.27;2.67;;;3.60;99.90;;;;;;5115658;27;20456;-71
2021/01/06 09:00:30;;;;;;;4.97;2.90;;;3.60;99.90;;;;;;5074930;28;20508;-70
2021/01/06 09:03:25;;;;;;;6.53;3.57;;;3.60;99.90;;;;;;5072198;28;20214;-71
2021/01/06 09:06:05;;;;;;;8.47;5.03;;;3.60;99.90;;;;;;5087235;28;20464;-70
2021/01/06 09:08:42;;;;;;;6.60;4.30;;;3.60;99.90;;;;;;5113957;28;20975;-71
2021/01/06 09:11:07;;;;;;;5.60;5.07;;;3.70;99.90;;;;;;5113570;27;20463;-70
2021/01/06 09:13:43;;;;;;;4.33;3.00;;;3.70;99.90;;;;;;5095134;28;20464;-71
2021/01/06 09:16:18;;;;;;;7.90;3.77;;;3.70;99.90;;;;;;5074076;28;20642;-69
2021/01/06 09:19:06;;;;;;;3.83;2.90;;;3.70;99.90;;;;;;5083179;28;20979;-71
2021/01/06 09:21:33;;;;;;;5.40;3.10;;;3.70;99.90;;;;;;5074778;28;20456;-71
2021/01/06 09:24:05;;;;;;;3.77;1.60;;;3.70;99.90;;;;;;5057273;28;20452;-72
2021/01/06 09:26:31;;;;;;;6.47;3.37;;;3.70;99.90;;;;;;5079608;27;20535;-72
2021/01/06 09:29:04;;;;;;;4.37;2.83;;;3.60;99.90;;;;;;5085364;28;20470;-72
2021/01/06 09:31:37;;;;;;;4.10;2.50;;;3.60;99.90;;;;;;5061328;28;20446;-67
2021/01/06 09:34:03;;;;;;;2.03;1.00;;;3.60;99.90;;;;;;5079864;27;20547;-72
2021/01/06 09:36:31;;;;;;;2.60;1.70;;;3.60;99.90;;;;;;5082399;28;20475;-71
2021/01/06 09:38:57;;;;;;;3.03;2.30;;;3.60;99.90;;;;;;5091392;28;20451;-71
2021/01/06 09:41:33;;;;;;;5.40;2.97;;;3.60;99.90;;;;;;5119578;27;20457;-71
2021/01/06 09:44:06;;;;;;;5.73;2.87;;;3.60;99.90;;;;;;5086495;28;20451;-72
2021/01/06 09:46:50;;;;;;;2.73;2.07;;;3.60;99.90;;;;;;5061104;28;20460;-69
2021/01/06 09:49:36;;;;;;;3.50;1.83;;;3.60;99.90;;;;;;5111401;28;20459;-69
2021/01/06 09:52:23;;;;;;;2.43;2.00;;;3.60;99.90;;;;;;5077857;28;20520;-70
2021/01/06 09:54:52;;;;;;;3.70;2.23;;;3.60;99.90;;;;;;5093113;28;20460;-71
2021/01/06 09:57:20;;;;;;;2.77;1.70;;;3.60;99.90;;;;;;5087056;28;20470;-70
2021/01/06 09:59:50;;;;;;;3.13;1.63;;;3.60;99.90;;;;;;5090939;28;20437;-72
2021/01/06 10:02:25;;;;;;;3.10;2.17;;;3.60;99.90;;;;;;5077096;28;20527;-70
2021/01/06 10:05:16;;;;;;;4.23;2.37;;;3.70;99.90;;;;;;5093686;28;20452;-70
2021/01/06 10:07:58;;;;;;;4.30;2.40;;;3.60;99.90;;;;;;5100130;28;20443;-71
2021/01/06 10:10:31;;;;;;;3.30;2.70;;;3.70;99.90;;;;;;5108480;28;20480;-72
2021/01/06 10:13:35;;;;;;;4.03;2.97;;;3.70;99.90;;;;;;5094381;28;20470;-70
2021/01/06 10:16:09;;;;;;;4.13;2.40;;;3.70;99.90;;;;;;5079684;28;20444;-71
2021/01/06 10:18:41;;;;;;;4.43;2.43;;;3.70;99.90;;;;;;5075064;28;20453;-69
2021/01/06 10:21:26;;;;;;;4.40;2.60;;;3.70;99.90;;;;;;5105295;28;20537;-70
2021/01/06 10:24:17;;;;;;;2.23;1.50;;;3.70;99.90;;;;;;5098619;28;20452;-71
2021/01/06 10:27:01;;;;;;;4.60;2.47;;;3.70;99.90;;;;;;5081537;28;20456;-72
2021/01/06 10:29:29;;;;;;;1.77;1.60;;;3.70;99.90;;;;;;5084477;27;20522;-69
2021/01/06 10:32:21;;;;;;;2.83;2.50;;;3.70;99.90;;;;;;5098633;28;20961;-72
2021/01/06 10:34:48;;;;;;;2.97;2.00;;;3.70;99.90;;;;;;5101778;28;20460;-72
2021/01/06 10:37:29;;;;;;;2.13;1.80;;;3.70;99.90;;;;;;5097347;28;20973;-68
2021/01/06 10:40:16;;;;;;;4.20;2.57;;;3.80;99.90;;;;;;5098627;27;20943;-72
2021/01/06 10:42:42;;;;;;;3.17;2.73;;;3.80;99.90;;;;;;5085617;28;20483;-71
2021/01/06 10:45:33;;;;;;;3.63;2.33;;;3.70;99.90;;;;;;5104425;28;20540;-71
2021/01/06 10:47:59;;;;;;;3.17;2.37;;;3.70;99.90;;;;;;5097348;28;20448;-71
2021/01/06 10:50:31;;;;;;;2.80;1.70;;;3.70;99.90;;;;;;5080750;28;20459;-71
2021/01/06 10:53:08;;;;;;;4.73;2.87;;;3.70;99.90;;;;;;5097043;28;20500;-72
2021/01/06 10:56:00;;;;;;;4.00;2.00;;;3.70;99.90;;;;;;5081224;28;20455;-71
2021/01/06 10:58:59;;;;;;;2.13;1.83;;;3.70;99.90;;;;;;5079937;28;20825;-71
2021/01/06 11:01:25;;;;;;;2.13;1.93;;;3.70;99.90;;;;;;5070644;28;20452;-68
2021/01/06 11:04:07;;;;;;;1.70;1.60;;;3.70;99.90;;;;;;5115759;28;20486;-71
2021/01/06 11:06:45;;;;;;;1.77;1.67;;;3.80;99.90;;;;;;5081339;28;20236;-71
2021/01/06 11:09:24;;;;;;;2.70;2.17;;;3.80;99.90;;;;;;5090544;28;20487;-70
2021/01/06 11:12:21;;;;;;;5.60;2.93;;;3.80;99.90;;;;;;5094238;28;20484;-71
2021/01/06 11:15:26;;;;;;;3.60;2.20;;;3.80;99.90;;;;;;5086091;28;20464;-71
2021/01/06 11:18:36;;;;;;;2.30;2.10;;;3.80;99.90;;;;;;5070616;28;20463;-70
2021/01/06 11:21:10;;;;;;;6.00;3.30;;;3.90;99.90;;;;;;5037446;28;20511;-70
2021/01/06 11:23:49;;;;;;;1.70;1.47;;;3.90;99.90;;;;;;5078933;28;20470;-71
2021/01/06 11:26:20;;;;;;;2.33;2.13;;;3.90;99.90;;;;;;5064653;28;20465;-70
2021/01/06 11:29:10;;;;;;;4.03;1.60;;;3.90;99.90;;;;;;5080333;28;20451;-71
2021/01/06 11:32:03;;;;;;;3.00;2.60;;;3.90;99.90;;;;;;5096757;28;20574;-69
2021/01/06 11:34:38;;;;;;;3.07;1.83;;;3.90;99.90;;;;;;5054205;28;20464;-72
2021/01/06 11:37:33;;;;;;;2.13;1.67;;;3.90;99.90;;;;;;5079706;28;20466;-71
2021/01/06 11:39:59;;;;;;;4.17;3.77;;;3.90;99.90;;;;;;5095842;28;20527;-71
2021/01/06 11:42:54;;;;;;;1.67;1.57;;;3.90;99.90;;;;;;5085774;28;20452;-71
2021/01/06 11:45:25;;;;;;;2.20;1.90;;;3.90;99.90;;;;;;5077420;28;20528;-72
2021/01/06 11:48:05;;;;;;;1.97;1.80;;;3.90;99.90;;;;;;5062148;28;20895;-72
2021/01/06 11:50:45;;;;;;;3.37;2.10;;;3.90;99.90;;;;;;5081672;28;20466;-72
2021/01/06 11:53:23;;;;;;;2.20;2.00;;;3.90;99.90;;;;;;5080282;28;20488;-71
2021/01/06 11:56:16;;;;;;;3.70;2.67;;;3.90;99.90;;;;;;5101829;27;20463;-67
2021/01/06 12:02:25;;;;;;;2.00;1.60;;;3.90;99.90;;;;;;5075635;28;20523;-70
2021/01/06 12:05:05;;;;;;;3.60;2.00;;;3.90;99.90;;;;;;5079500;27;20569;-70
2021/01/06 12:07:48;;;;;;;2.23;1.93;;;3.90;99.90;;;;;;5117541;27;20492;-71
2021/01/06 12:10:45;;;;;;;3.23;2.27;;;4.00;99.90;;;;;;5117218;27;20454;-71
2021/01/06 12:13:26;;;;;;;3.33;1.60;;;4.00;99.90;;;;;;5134540;27;20447;-71
2021/01/06 12:16:13;;;;;;;3.13;2.77;;;4.00;99.90;;;;;;5114130;27;20458;-72
2021/01/06 12:19:18;;;;;;;2.00;1.07;;;4.00;99.90;;;;;;5096512;27;20521;-72
2021/01/06 12:22:11;;;;;;;3.03;2.17;;;4.00;99.90;;;;;;5084890;28;20480;-71
2021/01/06 12:24:37;;;;;;;2.47;2.20;;;4.00;99.90;;;;;;5080082;27;20468;-72
2021/01/06 12:27:08;;;;;;;1.30;1.20;;;4.00;99.90;;;;;;5099889;27;20439;-72
2021/01/06 12:29:46;;;;;;;3.07;1.73;;;4.10;99.90;;;;;;5075460;28;20233;-71
2021/01/06 12:32:24;;;;;;;2.67;1.93;;;4.00;99.90;;;;;;5095150;27;20439;-70
2021/01/06 12:34:59;;;;;;;1.60;1.50;;;4.00;99.90;;;;;;5108483;27;20471;-71
2021/01/06 12:37:31;;;;;;;1.33;1.13;;;4.10;99.90;;;;;;5091128;27;21047;-71
2021/01/06 12:40:05;;;;;;;2.30;1.07;;;4.10;99.90;;;;;;5054969;28;22531;-71
2021/01/06 12:42:41;;;;;;;1.40;1.30;;;4.10;99.90;;;;;;5106926;28;20446;-71
2021/01/06 12:45:13;;;;;;;2.73;1.93;;;4.10;99.90;;;;;;5079526;28;20441;-69
2021/01/06 12:48:01;;;;;;;2.30;1.87;;;4.10;99.90;;;;;;5092283;28;20457;-72
2021/01/06 12:50:39;;;;;;;2.10;1.47;;;4.10;99.90;;;;;;5108661;27;20458;-71
2021/01/06 12:53:14;;;;;;;5.00;2.80;;;4.10;99.90;;;;;;5134037;27;20467;-72
2021/01/06 12:56:19;;;;;;;3.53;2.50;;;4.10;99.90;;;;;;5086557;28;20468;-72
2021/01/06 12:58:47;;;;;;;3.00;2.50;;;4.20;99.90;;;;;;5073908;28;20504;-70
2021/01/06 13:01:30;;;;;;;4.40;2.87;;;4.20;99.90;;;;;;5057957;28;20449;-71
2021/01/06 13:03:56;;;;;;;3.03;2.43;;;4.20;99.90;;;;;;5070092;28;20527;-71
2021/01/06 13:06:39;;;;;;;6.37;5.13;;;4.20;99.90;;;;;;5079922;28;20449;-72
2021/01/06 13:09:06;;;;;;;5.97;5.30;;;4.20;99.90;;;;;;5091395;28;20448;-72
2021/01/06 13:11:58;;;;;;;4.23;3.83;;;4.20;99.90;;;;;;5096043;28;20496;-72
2021/01/06 13:14:48;;;;;;;3.40;3.10;;;4.30;99.90;;;;;;5110617;28;20475;-72
2021/01/06 13:17:14;;;;;;;4.93;4.50;;;4.30;99.90;;;;;;5113311;28;20448;-71
2021/01/06 13:19:41;;;;;;;6.33;4.37;;;4.30;99.90;;;;;;5079218;28;20483;-71
2021/01/06 13:22:34;;;;;;;9.33;8.47;;;4.30;99.90;;;;;;5078921;28;20218;-72
2021/01/06 13:25:24;;;;;;;4.40;3.90;;;4.30;99.90;;;;;;5095647;28;20901;-71
2021/01/06 13:27:53;;;;;;;4.97;2.73;;;4.30;99.90;;;;;;5103656;28;20449;-72
2021/01/06 13:30:30;;;;;;;3.57;2.60;;;4.40;99.90;;;;;;5092741;28;20457;-72
2021/01/06 13:33:12;;;;;;;3.80;2.47;;;4.30;99.90;;;;;;5058904;28;20472;-70
2021/01/06 13:35:39;;;;;;;4.50;2.90;;;4.40;99.90;;;;;;5075936;28;20460;-71
2021/01/06 13:38:32;;;;;;;4.93;3.10;;;4.40;99.90;;;;;;5077317;27;20457;-72
2021/01/06 13:41:19;;;;;;;2.67;1.73;;;4.40;99.90;;;;;;5092514;28;20444;-71
2021/01/06 13:43:56;;;;;;;4.50;2.90;;;4.40;99.90;;;;;;5089648;28;20424;-72
2021/01/06 13:46:34;;;;;;;5.27;2.60;;;4.40;99.90;;;;;;5114384;28;20462;-71